Time;durP1;ratioP1;P1;durP2;ratioP2;P2;SDS_P1;SDS_P2;PMS_P1;PMS_P2;Temp;Humidity;BMP_temperature;BMP_pressure;BME280_temperature;BME280_humidity;BME280_pressure;Samples;Min_cycle;Max_cycle;Signal;HPM_P1;HPM_P2
2023/10/01 00:02:13;;;;;;;15.53;5.90;;;;;;;;;;4982254;28;20178;-84
2023/10/01 00:05:17;;;;;;;10.57;6.10;;;;;;;;;;4993504;28;20635;-83
2023/10/01 00:08:22;;;;;;;11.73;6.00;;;;;;;;;;5029584;28;20218;-83
2023/10/01 00:11:26;;;;;;;12.40;5.90;;;;;;;;;;5041491;28;20178;-83
2023/10/01 00:14:31;;;;;;;8.47;5.30;;;;;;;;;;5041005;28;20561;-83
2023/10/01 00:17:35;;;;;;;13.10;6.30;;;;;;;;;;4994441;28;20213;-84
2023/10/01 00:20:39;;;;;;;10.87;5.43;;;;;;;;;;5041128;28;20182;-84
2023/10/01 00:23:43;;;;;;;12.17;6.13;;;;;;;;;;5029749;28;20178;-84
2023/10/01 00:26:47;;;;;;;10.37;5.77;;;;;;;;;;5029362;28;20226;-84
2023/10/01 00:29:51;;;;;;;15.87;6.07;;;;;;;;;;5041085;28;20174;-84
2023/10/01 00:32:55;;;;;;;10.33;5.20;;;;;;;;;;4994807;28;20182;-83
2023/10/01 00:36:00;;;;;;;10.50;5.20;;;;;;;;;;5040961;28;20187;-84
2023/10/01 00:39:05;;;;;;;10.87;5.03;;;;;;;;;;5040759;28;20174;-83
2023/10/01 00:42:09;;;;;;;9.10;5.20;;;;;;;;;;5040617;28;20182;-83
2023/10/01 00:45:14;;;;;;;11.97;6.00;;;;;;;;;;5029571;28;20520;-83
2023/10/01 00:48:22;;;;;;;10.13;5.37;;;;;;;;;;4994207;28;20698;-83
2023/10/01 00:51:26;;;;;;;12.17;5.80;;;;;;;;;;4993961;28;20520;-84
2023/10/01 00:54:30;;;;;;;12.40;5.53;;;;;;;;;;4994430;28;20210;-83
2023/10/01 00:57:37;;;;;;;12.83;6.03;;;;;;;;;;5040721;28;20587;-83
2023/10/01 01:00:43;;;;;;;10.93;5.33;;;;;;;;;;5029483;28;20190;-83
2023/10/01 01:03:52;;;;;;;9.57;5.33;;;;;;;;;;5040795;28;20631;-83
2023/10/01 01:07:04;;;;;;;11.63;6.33;;;;;;;;;;5029481;28;20218;-83
2023/10/01 01:10:09;;;;;;;10.00;6.37;;;;;;;;;;4994115;28;20183;-84
2023/10/01 01:13:16;;;;;;;8.70;5.47;;;;;;;;;;5040596;28;20186;-84
2023/10/01 01:16:20;;;;;;;17.83;5.87;;;;;;;;;;5029920;28;20179;-83
2023/10/01 01:19:26;;;;;;;10.17;5.60;;;;;;;;;;5033042;28;20182;-83
2023/10/01 01:22:30;;;;;;;10.13;5.40;;;;;;;;;;4963140;28;20182;-84
2023/10/01 01:25:36;;;;;;;10.33;5.70;;;;;;;;;;4974405;28;20631;-83
2023/10/01 01:28:41;;;;;;;8.23;5.37;;;;;;;;;;5043492;28;20226;-84
2023/10/01 01:31:45;;;;;;;9.83;5.10;;;;;;;;;;5032465;28;20186;-84
2023/10/01 01:34:52;;;;;;;10.13;5.43;;;;;;;;;;4997325;28;20206;-84
2023/10/01 01:37:58;;;;;;;12.50;6.27;;;;;;;;;;5037375;28;20214;-84
2023/10/01 01:41:03;;;;;;;11.37;6.17;;;;;;;;;;4972028;28;20183;-84
2023/10/01 01:44:14;;;;;;;10.40;5.60;;;;;;;;;;5030131;28;20183;-84
2023/10/01 01:47:19;;;;;;;11.80;6.23;;;;;;;;;;4994824;28;20222;-84
2023/10/01 01:50:26;;;;;;;10.47;6.10;;;;;;;;;;4972138;28;20221;-84
2023/10/01 01:53:35;;;;;;;13.27;6.83;;;;;;;;;;5041386;28;20179;-84
2023/10/01 01:56:40;;;;;;;12.90;6.50;;;;;;;;;;5041302;28;20175;-84
2023/10/01 01:59:44;;;;;;;10.17;5.93;;;;;;;;;;5018528;28;20179;-83
2023/10/01 02:02:59;;;;;;;11.83;6.23;;;;;;;;;;5041448;28;20183;-84
2023/10/01 02:06:06;;;;;;;12.40;5.77;;;;;;;;;;4994699;28;20175;-84
2023/10/01 02:09:14;;;;;;;11.63;5.83;;;;;;;;;;5041045;28;20578;-84
2023/10/01 02:12:25;;;;;;;11.63;6.03;;;;;;;;;;4994090;28;20187;-84
2023/10/01 02:15:30;;;;;;;11.00;5.53;;;;;;;;;;5039749;28;20206;-84
2023/10/01 02:18:34;;;;;;;11.10;6.00;;;;;;;;;;5027891;28;20218;-83
2023/10/01 02:21:49;;;;;;;11.37;5.53;;;;;;;;;;5028328;28;20528;-84
2023/10/01 02:25:00;;;;;;;10.13;5.47;;;;;;;;;;5039529;28;20175;-83
2023/10/01 02:28:15;;;;;;;11.70;5.77;;;;;;;;;;4979942;28;20230;-83
2023/10/01 02:31:22;;;;;;;12.07;6.23;;;;;;;;;;5027800;28;20183;-83
2023/10/01 02:34:28;;;;;;;8.50;5.60;;;;;;;;;;5039842;28;20207;-85
2023/10/01 02:37:35;;;;;;;10.50;6.23;;;;;;;;;;5039548;28;20570;-83
2023/10/01 02:40:40;;;;;;;12.43;6.30;;;;;;;;;;5028387;28;20179;-83
2023/10/01 02:43:45;;;;;;;11.37;6.33;;;;;;;;;;5027808;28;20182;-83
2023/10/01 02:46:50;;;;;;;13.03;6.93;;;;;;;;;;5039657;28;20214;-83
2023/10/01 02:49:58;;;;;;;15.07;7.03;;;;;;;;;;4992841;28;20635;-85
2023/10/01 02:53:03;;;;;;;13.40;6.50;;;;;;;;;;4958828;28;20643;-85
2023/10/01 02:56:07;;;;;;;15.07;6.43;;;;;;;;;;5039396;28;20210;-85
2023/10/01 02:59:13;;;;;;;11.93;6.80;;;;;;;;;;4992847;28;20178;-85
2023/10/01 03:02:20;;;;;;;11.67;6.60;;;;;;;;;;5028036;28;20530;-86
2023/10/01 03:05:32;;;;;;;11.47;6.50;;;;;;;;;;5039061;28;20639;-84
2023/10/01 03:09:00;;;;;;;11.73;5.80;;;;;;;;;;5027322;28;20221;-85
2023/10/01 03:15:28;;;;;;;11.87;5.97;;;;;;;;;;5039015;28;20211;-84
2023/10/01 03:18:36;;;;;;;10.43;6.20;;;;;;;;;;5038698;28;20214;-84
2023/10/01 03:25:28;;;;;;;12.97;6.17;;;;;;;;;;5039528;28;20182;-84
2023/10/01 03:32:26;;;;;;;13.57;6.50;;;;;;;;;;5039321;28;20175;-85
2023/10/01 03:35:23;;;;;;;12.63;6.37;;;;;;;;;;5039059;28;20206;-84
2023/10/01 03:38:27;;;;;;;11.63;6.10;;;;;;;;;;5038640;28;20559;-84
2023/10/01 03:41:52;;;;;;;12.60;6.70;;;;;;;;;;5038788;28;20182;-84
2023/10/01 03:44:59;;;;;;;12.00;6.53;;;;;;;;;;4992082;28;20183;-84
2023/10/01 03:48:06;;;;;;;11.97;6.17;;;;;;;;;;5027499;28;20213;-84
2023/10/01 03:51:10;;;;;;;12.00;6.60;;;;;;;;;;4992212;28;20179;-83
2023/10/01 03:54:20;;;;;;;10.10;5.73;;;;;;;;;;5038416;28;20182;-83
2023/10/01 03:57:25;;;;;;;10.63;6.00;;;;;;;;;;5038296;28;20560;-84
2023/10/01 04:00:34;;;;;;;13.73;6.40;;;;;;;;;;5038538;28;20183;-84
2023/10/01 04:03:42;;;;;;;10.53;6.23;;;;;;;;;;5026994;28;20528;-83
2023/10/01 04:06:46;;;;;;;15.20;6.57;;;;;;;;;;4992188;28;20174;-83
2023/10/01 04:09:51;;;;;;;12.57;6.60;;;;;;;;;;5038290;28;20174;-83
2023/10/01 04:13:00;;;;;;;13.53;6.27;;;;;;;;;;4991902;28;20179;-84
2023/10/01 04:16:08;;;;;;;11.23;6.00;;;;;;;;;;4979763;28;20206;-83
2023/10/01 04:19:13;;;;;;;14.47;6.17;;;;;;;;;;5038438;28;20187;-83
2023/10/01 04:22:21;;;;;;;10.63;6.00;;;;;;;;;;4991933;28;20178;-83
2023/10/01 04:25:25;;;;;;;10.30;5.70;;;;;;;;;;4991740;28;20174;-84
2023/10/01 04:28:31;;;;;;;14.57;6.37;;;;;;;;;;4979801;28;20221;-83
2023/10/01 04:31:52;;;;;;;14.10;6.13;;;;;;;;;;5026481;28;20186;-83
2023/10/01 04:35:01;;;;;;;13.47;6.43;;;;;;;;;;5026839;28;20179;-83
2023/10/01 04:38:06;;;;;;;9.47;6.03;;;;;;;;;;4991684;28;20218;-83
2023/10/01 04:41:16;;;;;;;11.20;6.53;;;;;;;;;;4991810;28;20186;-83
2023/10/01 04:44:22;;;;;;;12.23;6.43;;;;;;;;;;5038394;28;20178;-83
2023/10/01 04:47:40;;;;;;;12.20;6.57;;;;;;;;;;5038343;28;20206;-84
2023/10/01 04:50:46;;;;;;;12.47;6.57;;;;;;;;;;5037840;28;20531;-83
2023/10/01 04:53:51;;;;;;;16.53;7.27;;;;;;;;;;5041636;28;20183;-83
2023/10/01 04:56:57;;;;;;;11.87;6.63;;;;;;;;;;5030372;28;20226;-83
2023/10/01 05:00:10;;;;;;;14.30;6.83;;;;;;;;;;5041987;28;20647;-83
2023/10/01 05:03:15;;;;;;;18.63;7.17;;;;;;;;;;4995005;28;20535;-83
2023/10/01 05:06:20;;;;;;;13.60;7.03;;;;;;;;;;5041188;28;20186;-84
2023/10/01 05:09:24;;;;;;;12.30;7.13;;;;;;;;;;5041726;28;20182;-83
2023/10/01 05:12:31;;;;;;;17.27;7.97;;;;;;;;;;4995216;28;20182;-85
2023/10/01 05:15:35;;;;;;;11.57;7.17;;;;;;;;;;5030306;28;20553;-85
2023/10/01 05:18:43;;;;;;;12.57;7.00;;;;;;;;;;5041451;28;20225;-86
2023/10/01 05:21:47;;;;;;;14.60;7.07;;;;;;;;;;5042057;28;20183;-86
2023/10/01 05:24:51;;;;;;;10.53;6.30;;;;;;;;;;5041650;28;20178;-85
2023/10/01 05:27:56;;;;;;;14.80;6.63;;;;;;;;;;5018769;28;20221;-85
2023/10/01 05:31:05;;;;;;;13.43;6.70;;;;;;;;;;5041722;28;20190;-85
2023/10/01 05:34:11;;;;;;;13.43;7.20;;;;;;;;;;4983392;28;20533;-86
2023/10/01 05:37:36;;;;;;;14.50;8.27;;;;;;;;;;5041103;28;20226;-86
2023/10/01 05:40:40;;;;;;;13.43;7.33;;;;;;;;;;4994746;28;20182;-86
2023/10/01 05:43:50;;;;;;;15.47;8.23;;;;;;;;;;4994097;28;20174;-85
2023/10/01 05:46:54;;;;;;;18.90;8.67;;;;;;;;;;5041352;28;20218;-88
2023/10/01 05:49:59;;;;;;;19.07;10.37;;;;;;;;;;5029715;28;20174;-86
2023/10/01 05:53:04;;;;;;;21.90;10.40;;;;;;;;;;4993734;28;20193;-87
2023/10/01 05:56:11;;;;;;;19.20;10.50;;;;;;;;;;5029088;28;20229;-87
2023/10/01 05:59:16;;;;;;;19.43;10.17;;;;;;;;;;4993561;28;20260;-86
2023/10/01 06:02:41;;;;;;;17.73;9.30;;;;;;;;;;5039668;28;20186;-86
2023/10/01 06:05:51;;;;;;;18.60;8.87;;;;;;;;;;5028942;28;20179;-86
2023/10/01 06:08:58;;;;;;;14.10;8.03;;;;;;;;;;5017285;28;20183;-86
2023/10/01 06:12:06;;;;;;;13.57;7.80;;;;;;;;;;5040010;28;20190;-84
2023/10/01 06:15:12;;;;;;;13.60;8.20;;;;;;;;;;4993255;28;20182;-83
2023/10/01 06:18:15;;;;;;;14.27;8.60;;;;;;;;;;4981355;28;20222;-83
2023/10/01 06:21:24;;;;;;;16.37;8.10;;;;;;;;;;5039639;28;20634;-84
2023/10/01 06:24:29;;;;;;;13.23;7.87;;;;;;;;;;5039721;28;20178;-82
2023/10/01 06:27:33;;;;;;;16.87;8.63;;;;;;;;;;5039504;28;20229;-82
2023/10/01 06:30:43;;;;;;;16.57;8.50;;;;;;;;;;5017063;28;20635;-82
2023/10/01 06:33:47;;;;;;;17.80;9.90;;;;;;;;;;5039623;28;20183;-82
2023/10/01 06:36:56;;;;;;;15.53;8.57;;;;;;;;;;5039749;28;20230;-85
2023/10/01 06:40:00;;;;;;;17.67;9.67;;;;;;;;;;4992914;28;20179;-85
2023/10/01 06:43:06;;;;;;;18.90;9.50;;;;;;;;;;4992678;28;20174;-84
2023/10/01 06:46:13;;;;;;;14.10;8.93;;;;;;;;;;5028248;28;20178;-85
2023/10/01 06:49:19;;;;;;;13.83;8.13;;;;;;;;;;5027487;28;20179;-85
2023/10/01 06:52:28;;;;;;;16.17;9.10;;;;;;;;;;4992654;28;20654;-84
2023/10/01 06:55:32;;;;;;;16.30;9.17;;;;;;;;;;5039018;28;20179;-84
2023/10/01 06:58:36;;;;;;;15.03;7.97;;;;;;;;;;5027297;28;20222;-84
2023/10/01 07:01:47;;;;;;;16.97;8.23;;;;;;;;;;4992597;28;20178;-85
2023/10/01 07:04:56;;;;;;;16.57;8.73;;;;;;;;;;5038828;28;20191;-85
2023/10/01 07:08:00;;;;;;;12.77;8.03;;;;;;;;;;4992254;28;20218;-84
2023/10/01 07:11:17;;;;;;;13.83;7.77;;;;;;;;;;5038590;28;20190;-84
2023/10/01 07:14:45;;;;;;;17.23;8.27;;;;;;;;;;5038205;28;20190;-83
2023/10/01 07:17:51;;;;;;;15.70;8.10;;;;;;;;;;4992019;28;20226;-83
2023/10/01 07:21:00;;;;;;;17.33;8.30;;;;;;;;;;4992109;28;20179;-83
2023/10/01 07:24:04;;;;;;;15.03;7.17;;;;;;;;;;4992026;28;20186;-83
2023/10/01 07:27:11;;;;;;;16.80;8.87;;;;;;;;;;5038807;28;20218;-84
2023/10/01 07:30:15;;;;;;;20.63;14.13;;;;;;;;;;4991924;28;20182;-84
2023/10/01 07:33:22;;;;;;;17.90;9.90;;;;;;;;;;5038339;28;20650;-83
2023/10/01 07:36:27;;;;;;;20.67;9.57;;;;;;;;;;5038182;28;20202;-84
2023/10/01 07:39:36;;;;;;;17.37;10.33;;;;;;;;;;5027175;28;20182;-84
2023/10/01 07:42:54;;;;;;;20.83;9.87;;;;;;;;;;5038083;28;20185;-84
2023/10/01 07:45:59;;;;;;;21.10;9.37;;;;;;;;;;5037918;28;20183;-83
2023/10/01 07:49:03;;;;;;;17.93;9.03;;;;;;;;;;5026517;28;20553;-84
2023/10/01 07:52:10;;;;;;;16.83;8.47;;;;;;;;;;5037955;28;20524;-83
2023/10/01 07:55:29;;;;;;;22.83;9.37;;;;;;;;;;5037954;28;20182;-83
2023/10/01 07:58:47;;;;;;;24.43;12.40;;;;;;;;;;4979635;28;20261;-84
2023/10/01 08:02:07;;;;;;;27.87;13.90;;;;;;;;;;5037931;28;20186;-84
2023/10/01 08:05:11;;;;;;;24.77;14.13;;;;;;;;;;4979634;28;20193;-83
2023/10/01 08:08:47;;;;;;;17.83;10.47;;;;;;;;;;5037803;28;20221;-84
2023/10/01 08:12:06;;;;;;;18.87;10.07;;;;;;;;;;5026247;28;20185;-84
2023/10/01 08:15:16;;;;;;;21.20;10.33;;;;;;;;;;4991385;28;20193;-84
2023/10/01 08:18:34;;;;;;;18.37;9.53;;;;;;;;;;5037684;28;20239;-83
2023/10/01 08:21:48;;;;;;;17.87;10.27;;;;;;;;;;4979407;28;20524;-84
2023/10/01 08:24:52;;;;;;;18.73;9.57;;;;;;;;;;5037807;28;20645;-83
2023/10/01 08:31:43;;;;;;;22.57;10.13;;;;;;;;;;5037567;28;20631;-83
2023/10/01 08:35:06;;;;;;;19.77;9.30;;;;;;;;;;4991106;28;20186;-83
2023/10/01 08:38:15;;;;;;;19.80;9.50;;;;;;;;;;4990975;28;20572;-83
2023/10/01 08:41:32;;;;;;;17.57;9.83;;;;;;;;;;4979086;28;20178;-84
2023/10/01 08:44:45;;;;;;;26.20;14.63;;;;;;;;;;5037180;28;20191;-84
2023/10/01 08:47:49;;;;;;;20.50;12.63;;;;;;;;;;4991000;28;20225;-83
2023/10/01 08:50:54;;;;;;;22.07;10.80;;;;;;;;;;5037742;28;20197;-84
2023/10/01 08:54:14;;;;;;;17.60;9.23;;;;;;;;;;5037531;28;20193;-84
2023/10/01 08:57:22;;;;;;;20.03;10.10;;;;;;;;;;5037204;28;20231;-84
2023/10/01 09:00:27;;;;;;;19.13;10.13;;;;;;;;;;5037210;28;20193;-84
2023/10/01 09:03:34;;;;;;;17.87;9.93;;;;;;;;;;5037347;28;20547;-84
2023/10/01 09:06:58;;;;;;;17.03;9.10;;;;;;;;;;4979074;28;20539;-84
2023/10/01 09:10:05;;;;;;;18.10;9.17;;;;;;;;;;4967933;28;20185;-84
2023/10/01 09:13:13;;;;;;;20.47;10.20;;;;;;;;;;4991014;28;20182;-84
2023/10/01 09:16:19;;;;;;;19.17;10.37;;;;;;;;;;4990503;28;20672;-84
2023/10/01 09:19:31;;;;;;;15.13;8.95;;;;;;;;;;5037408;28;20191;-84
2023/10/01 09:22:42;;;;;;;16.98;9.00;;;;;;;;;;5037160;28;20180;-84
2023/10/01 09:25:59;;;;;;;15.02;8.68;;;;;;;;;;4990706;28;20533;-84
2023/10/01 09:29:13;;;;;;;16.67;8.27;;;;;;;;;;4990459;28;20209;-84
2023/10/01 09:32:19;;;;;;;18.98;9.68;;;;;;;;;;5014297;28;20192;-84
2023/10/01 09:35:40;;;;;;;18.20;9.63;;;;;;;;;;5037036;28;20188;-84
2023/10/01 09:38:57;;;;;;;17.58;8.25;;;;;;;;;;4993153;28;20216;-84
2023/10/01 09:42:22;;;;;;;14.73;8.57;;;;;;;;;;5040287;28;20180;-84
2023/10/01 09:45:30;;;;;;;18.02;9.23;;;;;;;;;;5040150;28;20177;-84
2023/10/01 09:48:38;;;;;;;15.32;8.63;;;;;;;;;;5028603;28;20221;-83
2023/10/01 09:51:46;;;;;;;21.88;10.02;;;;;;;;;;5040083;28;20174;-83
2023/10/01 09:54:51;;;;;;;19.65;9.50;;;;;;;;;;5040449;28;20185;-84
2023/10/01 09:57:56;;;;;;;18.85;9.45;;;;;;;;;;4993322;28;20222;-83
2023/10/01 10:01:01;;;;;;;17.27;9.52;;;;;;;;;;5039822;28;20189;-83
2023/10/01 10:04:08;;;;;;;18.65;9.93;;;;;;;;;;4993657;28;20177;-83
2023/10/01 10:07:24;;;;;;;20.35;9.38;;;;;;;;;;5039701;28;20218;-83
2023/10/01 10:10:29;;;;;;;19.77;9.20;;;;;;;;;;5039743;28;20177;-84
2023/10/01 10:13:48;;;;;;;16.90;8.38;;;;;;;;;;4993223;28;20178;-84
2023/10/01 10:17:00;;;;;;;15.80;9.18;;;;;;;;;;5039676;28;20226;-84
2023/10/01 10:20:15;;;;;;;19.10;9.65;;;;;;;;;;5039721;28;20187;-84
2023/10/01 10:23:21;;;;;;;17.15;9.07;;;;;;;;;;5028053;28;20185;-84
2023/10/01 10:26:56;;;;;;;18.90;9.02;;;;;;;;;;5040098;28;20188;-84
2023/10/01 10:30:05;;;;;;;17.42;8.95;;;;;;;;;;5039677;28;20180;-84
2023/10/01 10:33:29;;;;;;;18.70;9.63;;;;;;;;;;5039414;28;20181;-84
2023/10/01 10:36:49;;;;;;;16.35;8.82;;;;;;;;;;4992693;28;20182;-84
2023/10/01 10:40:02;;;;;;;16.30;9.13;;;;;;;;;;5039598;28;20639;-84
2023/10/01 10:43:06;;;;;;;18.95;9.13;;;;;;;;;;5039190;28;20632;-84
2023/10/01 10:46:10;;;;;;;18.42;9.80;;;;;;;;;;5039440;28;20190;-84
2023/10/01 10:49:15;;;;;;;18.75;9.75;;;;;;;;;;5027152;28;20178;-84
2023/10/01 10:52:32;;;;;;;17.02;8.95;;;;;;;;;;4980812;28;20183;-84
2023/10/01 10:55:36;;;;;;;19.17;9.18;;;;;;;;;;5027989;28;20633;-84
2023/10/01 10:58:43;;;;;;;15.73;8.25;;;;;;;;;;5038775;28;20227;-84
2023/10/01 11:01:48;;;;;;;17.88;9.48;;;;;;;;;;5039193;28;20523;-83
2023/10/01 11:04:52;;;;;;;17.75;8.73;;;;;;;;;;5027799;28;20189;-84
2023/10/01 11:08:00;;;;;;;18.95;9.27;;;;;;;;;;4980248;28;20215;-83
2023/10/01 11:11:10;;;;;;;15.43;8.75;;;;;;;;;;5039144;28;20183;-85
2023/10/01 11:14:17;;;;;;;14.82;8.27;;;;;;;;;;4992613;28;20555;-86
2023/10/01 11:17:22;;;;;;;23.15;9.77;;;;;;;;;;4969212;28;20685;-86
2023/10/01 11:20:33;;;;;;;18.30;9.65;;;;;;;;;;5038686;28;20193;-86
2023/10/01 11:23:38;;;;;;;19.42;8.93;;;;;;;;;;4980221;28;20180;-86
2023/10/01 11:27:22;;;;;;;18.15;8.88;;;;;;;;;;5026973;28;20190;-86
2023/10/01 11:30:34;;;;;;;18.38;9.10;;;;;;;;;;4992135;28;20180;-86
2023/10/01 11:33:38;;;;;;;19.27;9.23;;;;;;;;;;4968967;28;20183;-86
2023/10/01 11:36:42;;;;;;;17.13;8.65;;;;;;;;;;5038248;28;20179;-86
2023/10/01 11:39:52;;;;;;;17.48;9.32;;;;;;;;;;4992171;28;20174;-87
2023/10/01 11:43:05;;;;;;;18.67;8.55;;;;;;;;;;4991900;28;20179;-86
2023/10/01 11:46:23;;;;;;;23.00;9.80;;;;;;;;;;4979884;28;20183;-86
2023/10/01 11:49:37;;;;;;;18.75;9.90;;;;;;;;;;4991894;28;20178;-86
2023/10/01 11:52:43;;;;;;;18.08;8.55;;;;;;;;;;5038477;28;20182;-86
2023/10/01 11:55:47;;;;;;;20.30;9.55;;;;;;;;;;5038191;28;20185;-86
2023/10/01 11:58:52;;;;;;;20.73;9.20;;;;;;;;;;5038019;28;20233;-86
2023/10/01 12:02:15;;;;;;;16.90;8.85;;;;;;;;;;5026731;28;20183;-86
2023/10/01 12:05:21;;;;;;;20.90;8.73;;;;;;;;;;5015033;28;20184;-86
2023/10/01 12:08:35;;;;;;;16.08;7.80;;;;;;;;;;4991824;28;20221;-86
2023/10/01 12:11:39;;;;;;;19.25;8.52;;;;;;;;;;5037665;28;20185;-86
2023/10/01 12:18:36;;;;;;;18.70;9.02;;;;;;;;;;4991412;28;20237;-86
2023/10/01 12:21:33;;;;;;;20.05;8.70;;;;;;;;;;4991401;28;20180;-86
2023/10/01 12:24:40;;;;;;;16.83;8.75;;;;;;;;;;5038133;28;20181;-86
2023/10/01 12:27:45;;;;;;;13.98;8.18;;;;;;;;;;5037527;28;20214;-87
2023/10/01 12:31:08;;;;;;;16.40;8.65;;;;;;;;;;4991120;28;20193;-86
2023/10/01 12:34:12;;;;;;;17.63;8.32;;;;;;;;;;4979051;28;20189;-85
2023/10/01 12:37:35;;;;;;;15.82;8.82;;;;;;;;;;5037544;28;20217;-86
2023/10/01 12:40:40;;;;;;;16.00;8.48;;;;;;;;;;5037585;28;20184;-85
2023/10/01 12:43:44;;;;;;;15.63;8.30;;;;;;;;;;4968015;28;20178;-86
2023/10/01 12:46:51;;;;;;;15.25;8.38;;;;;;;;;;4990905;28;20647;-85
2023/10/01 12:49:58;;;;;;;15.27;7.97;;;;;;;;;;4991095;28;20181;-86
2023/10/01 12:53:21;;;;;;;15.50;8.32;;;;;;;;;;4956837;28;20648;-86
2023/10/01 12:56:44;;;;;;;14.18;7.65;;;;;;;;;;4990810;28;20186;-86
2023/10/01 13:00:21;;;;;;;13.80;8.10;;;;;;;;;;5037491;28;20179;-86
2023/10/01 13:03:19;;;;;;;15.52;7.75;;;;;;;;;;5025767;28;20183;-86
2023/10/01 13:06:23;;;;;;;15.45;7.22;;;;;;;;;;4990692;28;20185;-86
2023/10/01 13:12:56;;;;;;;14.70;7.53;;;;;;;;;;4992168;28;20179;-87
2023/10/01 13:16:01;;;;;;;14.18;7.55;;;;;;;;;;5029323;28;20531;-86
2023/10/01 13:19:17;;;;;;;13.70;8.10;;;;;;;;;;5041046;28;20209;-86
2023/10/01 13:22:21;;;;;;;15.63;7.35;;;;;;;;;;5029496;28;20175;-86
2023/10/01 13:25:26;;;;;;;13.18;7.80;;;;;;;;;;4994085;28;20185;-86
2023/10/01 13:28:43;;;;;;;16.00;7.53;;;;;;;;;;4993798;28;20225;-86
2023/10/01 13:31:51;;;;;;;13.82;8.13;;;;;;;;;;4994150;28;20175;-86
2023/10/01 13:34:58;;;;;;;17.63;8.48;;;;;;;;;;4993919;28;20180;-86
2023/10/01 14:11:54;;;;;;;14.93;7.03;;;;;;;;;;5040078;28;20186;-85
2023/10/01 14:14:58;;;;;;;16.05;7.72;;;;;;;;;;4981551;28;20185;-86
2023/10/01 14:18:08;;;;;;;13.95;7.72;;;;;;;;;;4992892;28;20662;-85
2023/10/01 14:21:15;;;;;;;15.48;8.20;;;;;;;;;;4993160;28;20181;-86
2023/10/01 14:24:23;;;;;;;15.18;8.35;;;;;;;;;;5038710;28;20180;-86
2023/10/01 14:27:29;;;;;;;12.68;6.95;;;;;;;;;;4992877;28;20227;-86
2023/10/01 14:30:34;;;;;;;12.57;7.38;;;;;;;;;;4969975;28;20181;-86
2023/10/01 14:33:40;;;;;;;11.90;7.00;;;;;;;;;;4993127;28;20184;-86
2023/10/01 14:36:44;;;;;;;14.25;6.95;;;;;;;;;;4992932;28;20178;-86
2023/10/01 14:39:48;;;;;;;13.52;6.90;;;;;;;;;;4992839;28;20676;-86
2023/10/01 14:42:59;;;;;;;14.57;7.95;;;;;;;;;;4992810;28;20184;-86
2023/10/01 14:46:03;;;;;;;15.85;8.15;;;;;;;;;;5039300;28;20646;-85
2023/10/01 14:49:07;;;;;;;14.18;7.75;;;;;;;;;;5039224;28;20185;-86
2023/10/01 14:52:22;;;;;;;15.45;7.70;;;;;;;;;;4969738;28;20184;-86
2023/10/01 14:55:27;;;;;;;13.90;7.35;;;;;;;;;;4992911;28;20177;-86
2023/10/01 14:58:33;;;;;;;13.35;7.88;;;;;;;;;;5027503;28;20230;-86
2023/10/01 15:01:37;;;;;;;13.52;8.40;;;;;;;;;;5039058;28;20183;-86
2023/10/01 15:04:41;;;;;;;17.63;9.27;;;;;;;;;;4992533;28;20182;-86
2023/10/01 15:07:45;;;;;;;16.92;7.90;;;;;;;;;;5038936;28;20223;-86
2023/10/01 15:10:49;;;;;;;16.00;7.68;;;;;;;;;;5038798;28;20185;-86
2023/10/01 15:13:54;;;;;;;15.73;8.18;;;;;;;;;;5038843;28;20183;-86
2023/10/01 15:17:07;;;;;;;13.82;7.70;;;;;;;;;;5038926;28;20217;-86
2023/10/01 15:20:27;;;;;;;13.27;7.70;;;;;;;;;;5038922;28;20682;-85
2023/10/01 15:23:31;;;;;;;16.00;7.50;;;;;;;;;;5039151;28;20176;-86
2023/10/01 15:26:43;;;;;;;14.57;7.80;;;;;;;;;;5027716;28;20193;-86
2023/10/01 15:29:52;;;;;;;16.43;8.00;;;;;;;;;;5038543;28;20185;-85
2023/10/01 15:33:00;;;;;;;13.53;7.33;;;;;;;;;;5038567;28;20188;-86
2023/10/01 15:36:05;;;;;;;14.03;7.30;;;;;;;;;;4992004;28;20187;-86
2023/10/01 15:39:36;;;;;;;13.80;6.97;;;;;;;;;;5027411;28;20207;-86
2023/10/01 15:42:53;;;;;;;12.87;7.03;;;;;;;;;;5038792;28;20181;-86
2023/10/01 15:46:12;;;;;;;14.60;7.40;;;;;;;;;;5027035;28;20195;-86
2023/10/01 15:49:19;;;;;;;12.63;6.60;;;;;;;;;;5038500;28;20189;-85
2023/10/01 15:52:25;;;;;;;12.27;6.70;;;;;;;;;;5027708;28;20185;-86
2023/10/01 15:55:32;;;;;;;19.93;7.50;;;;;;;;;;4992384;28;20179;-86
2023/10/01 15:58:36;;;;;;;15.17;6.83;;;;;;;;;;5038041;28;20226;-85
2023/10/01 16:01:50;;;;;;;11.13;6.40;;;;;;;;;;4980007;28;20535;-85
2023/10/01 16:04:59;;;;;;;14.10;7.13;;;;;;;;;;4979705;28;20185;-86
2023/10/01 16:08:03;;;;;;;12.13;7.03;;;;;;;;;;4979476;28;20223;-86
2023/10/01 16:11:09;;;;;;;12.20;7.23;;;;;;;;;;5026579;28;20179;-86
2023/10/01 16:14:26;;;;;;;13.80;7.33;;;;;;;;;;5015427;28;20187;-86
2023/10/01 16:17:31;;;;;;;13.47;6.40;;;;;;;;;;4991091;28;20222;-86
2023/10/01 16:20:38;;;;;;;13.13;6.37;;;;;;;;;;5037808;28;20686;-85
2023/10/01 16:23:48;;;;;;;14.23;7.10;;;;;;;;;;4968806;28;20636;-86
2023/10/01 16:26:53;;;;;;;18.17;6.77;;;;;;;;;;4991393;28;20215;-86
2023/10/01 16:30:11;;;;;;;14.37;6.83;;;;;;;;;;4991188;28;20178;-86
2023/10/01 16:33:17;;;;;;;12.20;7.03;;;;;;;;;;5015258;28;20524;-85
2023/10/01 16:36:23;;;;;;;15.00;6.90;;;;;;;;;;5037739;28;20186;-86
2023/10/01 16:39:31;;;;;;;15.07;7.40;;;;;;;;;;5026175;28;20206;-86
2023/10/01 16:42:44;;;;;;;15.37;7.40;;;;;;;;;;5014640;28;20178;-86
2023/10/01 16:45:48;;;;;;;15.17;7.77;;;;;;;;;;5026890;28;20186;-86
2023/10/01 16:48:59;;;;;;;13.93;7.53;;;;;;;;;;4994091;28;20213;-86
2023/10/01 16:52:04;;;;;;;13.57;6.37;;;;;;;;;;4971870;28;20178;-86
2023/10/01 16:55:08;;;;;;;14.70;7.33;;;;;;;;;;5041560;28;20182;-87
2023/10/01 16:58:12;;;;;;;14.73;7.03;;;;;;;;;;5029826;28;20559;-86
2023/10/01 17:01:25;;;;;;;16.33;7.77;;;;;;;;;;4994379;28;20174;-86
2023/10/01 17:04:31;;;;;;;15.37;7.83;;;;;;;;;;5041884;28;20182;-86
2023/10/01 17:07:41;;;;;;;16.97;7.47;;;;;;;;;;5030015;28;20213;-86
2023/10/01 17:10:46;;;;;;;14.00;7.53;;;;;;;;;;4982423;28;20174;-86
2023/10/01 17:13:52;;;;;;;16.10;7.47;;;;;;;;;;5029959;28;20178;-86
2023/10/01 17:17:00;;;;;;;17.20;7.07;;;;;;;;;;5029859;28;20218;-86
2023/10/01 17:20:13;;;;;;;13.33;7.00;;;;;;;;;;5040731;28;20206;-86
2023/10/01 17:23:18;;;;;;;12.00;6.60;;;;;;;;;;4981923;28;20182;-86
2023/10/01 17:26:27;;;;;;;14.33;7.33;;;;;;;;;;4994400;28;20170;-86
2023/10/01 17:29:32;;;;;;;16.77;7.23;;;;;;;;;;5018006;28;20520;-86
2023/10/01 17:32:36;;;;;;;13.33;6.77;;;;;;;;;;4970755;28;20524;-86
2023/10/01 17:35:47;;;;;;;17.47;7.57;;;;;;;;;;5029476;28;20182;-86
2023/10/01 17:38:54;;;;;;;17.27;7.70;;;;;;;;;;5029465;28;20210;-85
2023/10/01 17:42:01;;;;;;;15.93;7.50;;;;;;;;;;5029036;28;20174;-85
2023/10/01 17:45:06;;;;;;;15.30;7.47;;;;;;;;;;5041249;28;20182;-86
2023/10/01 17:48:16;;;;;;;14.27;6.83;;;;;;;;;;5040407;28;20226;-85
2023/10/01 17:51:26;;;;;;;15.77;7.17;;;;;;;;;;5040592;28;20179;-86
2023/10/01 17:54:33;;;;;;;16.37;7.17;;;;;;;;;;5029337;28;20186;-86
2023/10/01 17:57:47;;;;;;;16.20;6.40;;;;;;;;;;5040719;28;20214;-85
2023/10/01 18:00:52;;;;;;;13.90;6.77;;;;;;;;;;5029252;28;20210;-86
2023/10/01 18:03:58;;;;;;;14.80;7.40;;;;;;;;;;5040424;28;20516;-86
2023/10/01 18:07:04;;;;;;;13.97;6.00;;;;;;;;;;4993686;28;20698;-86
2023/10/01 18:10:25;;;;;;;19.07;6.80;;;;;;;;;;4993887;28;20183;-86
2023/10/01 18:13:29;;;;;;;14.50;6.63;;;;;;;;;;4994065;28;20183;-86
2023/10/01 18:16:33;;;;;;;17.73;7.13;;;;;;;;;;5040391;28;20201;-87
2023/10/01 18:19:47;;;;;;;14.90;7.30;;;;;;;;;;5040331;28;20214;-86
2023/10/01 18:22:57;;;;;;;13.83;6.97;;;;;;;;;;5040131;28;20182;-86
2023/10/01 18:26:03;;;;;;;14.70;7.43;;;;;;;;;;5040515;28;20199;-87
2023/10/01 18:29:14;;;;;;;14.23;6.93;;;;;;;;;;5040753;28;20210;-86
2023/10/01 18:32:18;;;;;;;16.13;7.60;;;;;;;;;;4994017;28;20191;-86
2023/10/01 18:35:25;;;;;;;14.27;6.27;;;;;;;;;;5039859;28;20636;-85
2023/10/01 18:38:30;;;;;;;14.50;6.73;;;;;;;;;;5040579;28;20690;-86
2023/10/01 18:41:34;;;;;;;12.40;6.90;;;;;;;;;;4981700;28;20517;-87
2023/10/01 18:44:39;;;;;;;13.27;7.13;;;;;;;;;;5040235;28;20182;-86
2023/10/01 18:47:42;;;;;;;18.37;7.30;;;;;;;;;;5040600;28;20209;-86
2023/10/01 18:50:46;;;;;;;13.03;6.60;;;;;;;;;;5017145;28;20174;-86
2023/10/01 18:53:51;;;;;;;12.73;6.53;;;;;;;;;;5028726;28;20182;-87
2023/10/01 18:57:00;;;;;;;15.70;6.80;;;;;;;;;;5039713;28;20240;-87
2023/10/01 19:00:05;;;;;;;12.90;6.70;;;;;;;;;;4993556;28;20210;-87
2023/10/01 19:03:11;;;;;;;15.97;7.40;;;;;;;;;;5028525;28;20524;-86
2023/10/01 19:06:18;;;;;;;13.40;6.60;;;;;;;;;;5040159;28;20182;-86
2023/10/01 19:09:26;;;;;;;13.97;7.03;;;;;;;;;;5039842;28;20630;-86
2023/10/01 19:12:30;;;;;;;14.87;7.40;;;;;;;;;;4993327;28;20178;-85
2023/10/01 19:15:38;;;;;;;16.50;8.00;;;;;;;;;;5028229;28;20183;-87
2023/10/01 19:18:43;;;;;;;15.83;8.03;;;;;;;;;;5038972;28;20571;-86
2023/10/01 19:21:54;;;;;;;15.40;7.63;;;;;;;;;;4993404;28;20183;-86
2023/10/01 19:24:58;;;;;;;16.00;6.97;;;;;;;;;;5039993;28;20183;-86
2023/10/01 19:28:08;;;;;;;14.90;7.20;;;;;;;;;;5027580;28;20222;-85